createdAt,value
2022-08-04T00:00:12.283Z,29.00
2022-08-04T00:03:04.451Z,29.10
2022-08-04T00:05:36.989Z,28.60
2022-08-04T00:08:39.825Z,28.40
2022-08-04T00:11:15.536Z,28.60
2022-08-04T00:13:58.161Z,28.50
2022-08-04T00:16:15.622Z,28.30
2022-08-04T00:18:54.127Z,28.20
2022-08-04T00:21:26.723Z,28.30
2022-08-04T00:24:11.524Z,28.50
2022-08-04T00:26:29.149Z,28.70
2022-08-04T00:28:58.732Z,28.80
2022-08-04T00:31:53.668Z,28.40
2022-08-04T00:34:01.791Z,28.40
2022-08-04T00:36:32.564Z,28.20
2022-08-04T00:39:03.078Z,28.10
2022-08-04T00:41:56.809Z,28.10
2022-08-04T00:44:49.669Z,28.40
2022-08-04T00:47:40.151Z,28.60
2022-08-04T00:50:11.976Z,28.30
2022-08-04T00:52:53.498Z,27.70
2022-08-04T00:56:00.238Z,27.60
2022-08-04T00:58:32.907Z,27.90
2022-08-04T01:01:08.264Z,28.30
2022-08-04T01:04:00.156Z,28.60
2022-08-04T01:06:44.591Z,28.50
2022-08-04T01:09:22.030Z,28.30
2022-08-04T01:12:10.087Z,28.20
2022-08-04T01:14:45.420Z,28.30
2022-08-04T01:17:17.903Z,28.40
2022-08-04T01:20:00.894Z,28.40
2022-08-04T01:22:36.360Z,28.60
2022-08-04T01:25:21.188Z,28.60
2022-08-04T01:28:06.887Z,28.40
2022-08-04T01:30:39.386Z,28.30
2022-08-04T01:33:12.053Z,28.50
2022-08-04T01:35:47.929Z,28.50
2022-08-04T01:38:30.717Z,28.20
2022-08-04T01:41:03.254Z,28.20
2022-08-04T01:43:33.419Z,28.20
2022-08-04T01:46:05.697Z,28.40
2022-08-04T01:48:38.891Z,28.40
2022-08-04T01:51:10.871Z,28.50
2022-08-04T01:53:43.248Z,28.20
2022-08-04T01:56:13.755Z,28.20
2022-08-04T01:58:43.730Z,28.00
2022-08-04T02:01:15.035Z,27.90
2022-08-04T02:04:20.632Z,27.70
2022-08-04T02:06:41.736Z,27.90
2022-08-04T02:09:26.187Z,27.80
2022-08-04T02:12:01.260Z,27.80
2022-08-04T02:14:43.320Z,27.70
2022-08-04T02:17:22.246Z,27.60
2022-08-04T02:20:04.068Z,27.10
2022-08-04T02:22:36.263Z,27.00
2022-08-04T02:25:42.787Z,27.00
2022-08-04T02:28:15.298Z,26.90
2022-08-04T02:30:53.449Z,27.10
2022-08-04T02:33:40.845Z,27.10
2022-08-04T02:36:13.414Z,27.10
2022-08-04T02:39:02.756Z,27.00
2022-08-04T02:41:33.414Z,27.10
2022-08-04T02:44:05.709Z,27.10
2022-08-04T02:46:36.914Z,27.10
2022-08-04T02:49:09.648Z,27.00
2022-08-04T02:51:44.288Z,27.00
2022-08-04T02:54:16.879Z,26.80
2022-08-04T02:56:49.824Z,26.60
2022-08-04T02:59:22.945Z,26.20
2022-08-04T03:01:57.438Z,26.30
2022-08-04T03:04:45.968Z,26.10
2022-08-04T03:07:50.140Z,26.20
2022-08-04T03:10:42.336Z,26.10
2022-08-04T03:13:29.746Z,26.30
2022-08-04T03:16:24.865Z,26.20
2022-08-04T03:19:30.954Z,26.30
2022-08-04T03:22:22.922Z,26.40
2022-08-04T03:25:11.928Z,26.20
2022-08-04T03:28:10.275Z,26.10
2022-08-04T03:31:04.743Z,26.10
2022-08-04T03:33:55.569Z,25.90
2022-08-04T03:36:40.309Z,25.80
2022-08-04T03:39:34.332Z,25.70
2022-08-04T03:42:30.884Z,25.80
2022-08-04T03:45:29.090Z,25.80
2022-08-04T03:48:21.432Z,25.60
2022-08-04T03:51:34.841Z,25.80
2022-08-04T03:54:03.393Z,25.80
2022-08-04T03:57:04.745Z,25.40
2022-08-04T03:59:49.427Z,25.50
2022-08-04T04:02:41.693Z,25.30
2022-08-04T04:05:23.476Z,25.20
2022-08-04T04:08:03.968Z,25.10
2022-08-04T04:10:53.691Z,25.00
2022-08-04T04:13:29.638Z,25.00
2022-08-04T04:16:14.432Z,24.80
2022-08-04T04:19:15.801Z,24.90
2022-08-04T04:21:57.041Z,25.00
2022-08-04T04:24:48.677Z,25.20
2022-08-04T04:27:33.259Z,25.20
2022-08-04T04:30:22.265Z,25.30
2022-08-04T04:33:10.164Z,25.30
2022-08-04T04:35:45.568Z,25.50
2022-08-04T04:38:42.439Z,25.40
2022-08-04T04:41:23.844Z,25.20
2022-08-04T04:44:14.082Z,25.40
2022-08-04T04:47:10.861Z,25.10
2022-08-04T04:49:52.218Z,25.00
2022-08-04T04:52:44.873Z,25.20
2022-08-04T04:55:24.406Z,25.60
2022-08-04T04:57:56.757Z,25.60
2022-08-04T05:00:29.369Z,25.40
2022-08-04T05:03:16.900Z,25.40
2022-08-04T05:06:07.274Z,25.30
2022-08-04T05:08:56.609Z,25.20
2022-08-04T05:11:51.342Z,25.40
2022-08-04T05:14:38.962Z,25.50
2022-08-04T05:17:09.331Z,25.50
2022-08-04T05:19:50.874Z,25.50
2022-08-04T05:22:26.935Z,25.60
2022-08-04T05:25:02.252Z,25.60
2022-08-04T05:27:38.177Z,25.70
2022-08-04T05:30:08.128Z,25.60
2022-08-04T05:32:43.214Z,25.50
2022-08-04T05:35:15.979Z,25.40
2022-08-04T05:38:01.199Z,25.20
2022-08-04T05:40:21.135Z,25.40
2022-08-04T05:42:52.610Z,25.30
2022-08-04T05:45:24.433Z,25.50
2022-08-04T05:47:54.829Z,25.30
2022-08-04T05:50:25.408Z,25.50
2022-08-04T05:55:57.009Z,25.40
2022-08-04T05:57:59.827Z,25.40
2022-08-04T06:00:40.905Z,25.40
2022-08-04T06:03:02.923Z,25.30
2022-08-04T06:05:33.626Z,25.30
2022-08-04T06:08:12.553Z,25.40
2022-08-04T06:10:36.395Z,25.50
2022-08-04T06:13:08.959Z,25.40
2022-08-04T06:15:44.503Z,25.30
2022-08-04T06:19:57.767Z,25.40
2022-08-04T06:20:50.200Z,25.30
2022-08-04T06:23:21.556Z,25.20
2022-08-04T06:25:56.342Z,25.30
2022-08-04T06:28:27.526Z,25.30
2022-08-04T06:30:59.567Z,25.40
2022-08-04T06:33:33.733Z,25.70
2022-08-04T06:36:07.217Z,25.40
2022-08-04T06:38:36.818Z,25.80
2022-08-04T06:41:08.453Z,25.80
2022-08-04T06:43:42.789Z,26.10
2022-08-04T06:46:11.370Z,26.40
2022-08-04T06:48:41.179Z,26.30
2022-08-04T06:51:24.436Z,26.60
2022-08-04T06:53:44.099Z,26.80
2022-08-04T06:56:16.715Z,26.90
2022-08-04T06:58:48.595Z,26.90
2022-08-04T07:01:20.701Z,27.20
2022-08-04T07:03:50.897Z,27.60
2022-08-04T07:06:25.575Z,27.80
2022-08-04T07:08:56.471Z,27.50
2022-08-04T07:11:26.602Z,27.60
2022-08-04T07:13:56.694Z,28.60
2022-08-04T07:16:30.585Z,28.50
2022-08-04T07:18:57.705Z,29.00
2022-08-04T07:21:28.020Z,29.60
2022-08-04T07:23:57.701Z,29.80
2022-08-04T07:26:30.372Z,29.00
2022-08-04T07:28:59.988Z,27.90
2022-08-04T07:31:33.875Z,27.70
2022-08-04T07:34:16.417Z,28.10
2022-08-04T07:36:41.894Z,28.00
2022-08-04T07:39:05.417Z,27.90
2022-08-04T07:41:37.469Z,28.30
2022-08-04T07:44:09.488Z,29.00
2022-08-04T07:46:39.465Z,29.30
2022-08-04T07:49:09.193Z,29.90
2022-08-04T07:51:39.365Z,28.80
2022-08-04T07:54:10.968Z,29.70
2022-08-04T07:56:43.199Z,28.40
2022-08-04T07:59:11.822Z,29.30
2022-08-04T08:01:42.296Z,30.00
2022-08-04T08:04:12.972Z,30.50
2022-08-04T08:06:43.619Z,31.30
2022-08-04T08:09:15.540Z,31.20
2022-08-04T08:12:38.041Z,30.40
2022-08-04T08:14:20.228Z,31.20
2022-08-04T08:16:49.821Z,31.80
2022-08-04T08:19:19.340Z,31.70
2022-08-04T08:21:58.907Z,31.40
2022-08-04T08:24:21.129Z,31.30
2022-08-04T08:26:50.755Z,31.20
2022-08-04T08:29:21.554Z,31.20
2022-08-04T08:31:58.388Z,31.60
2022-08-04T08:34:27.883Z,31.10
2022-08-04T08:37:05.827Z,31.20
2022-08-04T08:39:41.063Z,32.20
2022-08-04T08:42:19.663Z,32.80
2022-08-04T08:45:27.129Z,33.00
2022-08-04T08:48:20.576Z,33.30
2022-08-04T08:51:02.545Z,33.00
2022-08-04T08:53:57.647Z,32.90
2022-08-04T08:56:49.576Z,33.10
2022-08-04T08:59:47.847Z,32.90
2022-08-04T09:02:41.484Z,33.20
2022-08-04T09:05:39.442Z,33.30
2022-08-04T09:08:31.357Z,34.00
2022-08-04T09:11:09.719Z,33.30
2022-08-04T09:13:46.239Z,33.90
2022-08-04T09:16:53.773Z,33.70
2022-08-04T09:19:38.926Z,34.10
2022-08-04T09:22:10.711Z,32.50
2022-08-04T09:24:43.102Z,32.10
2022-08-04T09:27:18.407Z,32.80
2022-08-04T09:29:51.626Z,32.70
2022-08-04T09:32:41.561Z,33.70
2022-08-04T09:35:24.515Z,33.10
2022-08-04T09:38:13.366Z,33.30
2022-08-04T09:40:57.005Z,32.80
2022-08-04T09:44:50.091Z,31.40
2022-08-04T09:46:40.020Z,32.50
2022-08-04T09:49:42.939Z,32.30
2022-08-04T09:52:47.125Z,32.50
2022-08-04T09:55:53.446Z,31.70
2022-08-04T09:58:22.830Z,31.80
2022-08-04T10:00:55.375Z,33.90
2022-08-04T10:03:27.897Z,33.00
2022-08-04T10:06:14.865Z,31.00
2022-08-04T10:09:20.622Z,31.40
2022-08-04T10:12:12.099Z,33.90
2022-08-04T10:14:56.643Z,35.40
2022-08-04T10:17:52.527Z,33.70
2022-08-04T10:20:45.586Z,33.70
2022-08-04T10:23:55.982Z,32.10
2022-08-04T10:26:30.408Z,33.60
2022-08-04T10:29:17.863Z,34.40
2022-08-04T10:32:10.428Z,34.80
2022-08-04T10:34:46.005Z,35.60
2022-08-04T10:37:55.360Z,35.00
2022-08-04T10:40:26.368Z,34.90
2022-08-04T10:43:00.276Z,32.40
2022-08-04T10:45:38.998Z,32.80
2022-08-04T10:48:34.551Z,33.90
2022-08-04T10:51:01.000Z,35.00
2022-08-04T10:53:33.811Z,35.30
2022-08-04T10:56:09.707Z,35.10
2022-08-04T10:58:47.835Z,35.90
2022-08-04T11:02:01.198Z,35.20
2022-08-04T11:03:50.574Z,35.30
2022-08-04T11:06:23.054Z,34.60
2022-08-04T11:08:55.603Z,34.10
2022-08-04T11:14:18.886Z,36.00
2022-08-04T11:16:54.087Z,35.30
2022-08-04T11:19:41.537Z,35.70
2022-08-04T11:22:12.683Z,37.40
2022-08-04T11:24:48.116Z,36.20
2022-08-04T11:27:20.965Z,35.40
2022-08-04T11:29:59.734Z,34.10
2022-08-04T11:32:32.293Z,35.10
2022-08-04T11:35:05.142Z,34.90
2022-08-04T11:37:52.666Z,36.20
2022-08-04T11:40:28.255Z,36.10
2022-08-04T11:43:00.816Z,36.70
2022-08-04T11:45:38.939Z,35.70
2022-08-04T11:48:26.854Z,35.20
2022-08-04T11:50:56.998Z,35.80
2022-08-04T11:53:36.509Z,36.50
2022-08-04T11:56:09.256Z,36.10
2022-08-04T11:58:35.014Z,36.20
2022-08-04T12:01:27.766Z,37.60
2022-08-04T12:04:06.474Z,37.50
2022-08-04T12:07:21.618Z,36.70
2022-08-04T12:09:38.960Z,36.20
2022-08-04T12:12:29.627Z,35.30
2022-08-04T12:15:04.952Z,34.50
2022-08-04T12:17:52.327Z,35.50
2022-08-04T12:20:32.230Z,36.40
2022-08-04T12:22:51.617Z,36.50
2022-08-04T12:25:34.388Z,36.90
2022-08-04T12:28:25.279Z,37.50
2022-08-04T12:31:03.438Z,38.40
2022-08-04T12:34:04.296Z,37.20
2022-08-04T12:36:34.688Z,36.90
2022-08-04T12:39:16.215Z,36.90
2022-08-04T12:42:07.244Z,36.20
2022-08-04T12:44:40.085Z,35.70
2022-08-04T12:47:27.478Z,35.40
2022-08-04T12:49:48.111Z,37.50
2022-08-04T12:52:20.411Z,38.90
2022-08-04T12:54:52.962Z,38.30
2022-08-04T12:57:24.841Z,38.10
2022-08-04T12:59:57.269Z,38.20
2022-08-04T13:02:36.363Z,38.40
2022-08-04T13:05:08.263Z,37.30
2022-08-04T13:07:46.652Z,37.90
2022-08-04T13:10:20.052Z,37.00
2022-08-04T13:13:01.047Z,37.40
2022-08-04T13:15:32.307Z,37.60
2022-08-04T13:18:14.723Z,37.60
2022-08-04T13:20:41.215Z,37.30
2022-08-04T13:23:21.450Z,37.20
2022-08-04T13:26:45.048Z,37.80
2022-08-04T13:28:28.828Z,37.00
2022-08-04T13:31:03.482Z,37.00
2022-08-04T13:33:35.847Z,37.50
2022-08-04T13:36:08.259Z,37.20
2022-08-04T13:38:40.865Z,36.80
2022-08-04T13:41:10.930Z,38.00
2022-08-04T13:46:28.189Z,37.70
2022-08-04T13:49:15.977Z,37.80
2022-08-04T13:51:57.944Z,37.10
2022-08-04T13:54:00.412Z,37.20
2022-08-04T13:56:41.896Z,37.50
2022-08-04T13:59:14.070Z,36.30
2022-08-04T14:01:47.241Z,36.70
2022-08-04T14:04:20.588Z,36.40
2022-08-04T14:06:58.743Z,36.00
2022-08-04T14:09:35.341Z,37.00
2022-08-04T14:12:38.529Z,36.70
2022-08-04T14:14:50.347Z,36.40
2022-08-04T14:17:22.983Z,36.10
2022-08-04T14:20:00.192Z,36.30
2022-08-04T14:22:34.276Z,36.30
2022-08-04T14:25:16.851Z,36.50
2022-08-04T14:27:49.716Z,37.00
2022-08-04T14:30:31.651Z,36.40
2022-08-04T14:34:04.771Z,36.20
2022-08-04T14:35:50.290Z,36.40
2022-08-04T14:38:12.592Z,37.40
2022-08-04T14:40:45.198Z,37.60
2022-08-04T14:43:17.712Z,37.10
2022-08-04T14:45:54.338Z,37.30
2022-08-04T14:48:22.005Z,36.90
2022-08-04T14:50:52.982Z,36.60
2022-08-04T14:53:29.279Z,37.40
2022-08-04T14:56:01.162Z,37.60
2022-08-04T14:58:36.400Z,37.40
2022-08-04T15:01:10.592Z,37.20
2022-08-04T15:03:38.539Z,36.70
2022-08-04T15:06:14.442Z,37.50
2022-08-04T15:08:44.387Z,37.50
2022-08-04T15:11:13.402Z,37.10
2022-08-04T15:13:44.716Z,37.00
2022-08-04T15:16:16.226Z,37.00
2022-08-04T15:18:49.269Z,37.10
2022-08-04T15:21:17.583Z,37.60
2022-08-04T15:23:47.960Z,37.10
2022-08-04T15:26:23.521Z,37.10
2022-08-04T15:28:59.290Z,36.70
2022-08-04T15:32:07.625Z,37.40
2022-08-04T15:34:00.412Z,37.00
2022-08-04T15:36:38.587Z,37.20
2022-08-04T15:39:25.457Z,37.40
2022-08-04T15:42:23.178Z,36.90
2022-08-04T15:44:58.440Z,37.10
2022-08-04T15:47:28.524Z,36.70
2022-08-04T15:50:12.944Z,37.00
2022-08-04T15:53:10.303Z,37.20
2022-08-04T15:55:34.493Z,37.10
2022-08-04T15:58:09.804Z,37.30
2022-08-04T16:00:54.991Z,37.20
2022-08-04T16:03:58.976Z,36.90
2022-08-04T16:06:22.887Z,36.80
2022-08-04T16:08:57.746Z,36.70
2022-08-04T16:11:37.034Z,36.20
2022-08-04T16:14:11.523Z,36.40
2022-08-04T16:16:45.679Z,36.20
2022-08-04T16:19:51.557Z,35.90
2022-08-04T16:22:38.981Z,36.10
2022-08-04T16:25:10.735Z,35.90
2022-08-04T16:27:42.756Z,35.50
2022-08-04T16:30:16.418Z,35.70
2022-08-04T16:32:48.865Z,35.40
2022-08-04T16:35:21.469Z,35.20
2022-08-04T16:37:54.910Z,35.40
2022-08-04T16:40:40.155Z,35.40
2022-08-04T16:43:14.753Z,35.40
2022-08-04T16:45:56.118Z,35.10
2022-08-04T16:48:29.064Z,35.30
2022-08-04T16:51:03.244Z,35.60
2022-08-04T16:54:02.598Z,35.50
2022-08-04T16:56:20.882Z,35.90
2022-08-04T16:58:54.440Z,35.70
2022-08-04T17:01:34.207Z,35.60
2022-08-04T17:03:57.797Z,35.40
2022-08-04T17:06:30.192Z,35.10
2022-08-04T17:09:03.600Z,35.30
2022-08-04T17:11:34.312Z,35.20
2022-08-04T17:14:05.685Z,35.00
2022-08-04T17:16:37.868Z,34.80
2022-08-04T17:19:24.333Z,34.80
2022-08-04T17:21:40.741Z,34.50
2022-08-04T17:24:15.620Z,34.50
2022-08-04T17:26:51.813Z,34.30
2022-08-04T17:29:20.062Z,34.30
2022-08-04T17:31:45.660Z,34.40
2022-08-04T17:34:19.538Z,34.20
2022-08-04T17:36:49.466Z,34.00
2022-08-04T17:39:23.248Z,33.90
2022-08-04T17:41:59.269Z,33.70
2022-08-04T17:44:38.080Z,33.80
2022-08-04T17:47:18.514Z,33.90
2022-08-04T17:49:53.277Z,33.60
2022-08-04T17:52:41.217Z,33.50
2022-08-04T17:55:04.151Z,33.40
2022-08-04T17:57:33.829Z,33.30
2022-08-04T18:00:03.342Z,33.30
2022-08-04T18:02:35.255Z,33.10
2022-08-04T18:08:34.623Z,33.00
2022-08-04T18:10:30.919Z,32.90
2022-08-04T18:12:49.186Z,32.80
2022-08-04T18:15:40.502Z,32.80
2022-08-04T18:18:03.462Z,32.60
2022-08-04T18:20:34.621Z,32.70
2022-08-04T18:23:06.014Z,32.70
2022-08-04T18:25:51.474Z,32.70
2022-08-04T18:28:14.334Z,32.50
2022-08-04T18:30:54.924Z,32.30
2022-08-04T18:33:40.677Z,32.30
2022-08-04T18:36:33.913Z,32.30
2022-08-04T18:38:23.475Z,32.20
2022-08-04T18:40:54.218Z,32.10
2022-08-04T18:43:16.952Z,32.00
2022-08-04T18:48:19.277Z,32.20
2022-08-04T18:51:09.462Z,32.30
2022-08-04T18:53:22.298Z,32.40
2022-08-04T18:55:57.205Z,31.90
2022-08-04T18:58:27.506Z,31.80
2022-08-04T19:00:56.069Z,31.60
2022-08-04T19:03:26.144Z,31.70
2022-08-04T19:05:58.423Z,31.40
2022-08-04T19:11:00.456Z,31.40
2022-08-04T19:13:34.671Z,31.20
2022-08-04T19:16:03.485Z,31.20
2022-08-04T19:18:33.474Z,31.20
2022-08-04T19:21:06.675Z,31.00
2022-08-04T19:24:28.951Z,31.00
2022-08-04T19:26:16.563Z,30.90
2022-08-04T19:28:39.042Z,31.00
2022-08-04T19:31:10.076Z,31.20
2022-08-04T19:33:59.414Z,31.20
2022-08-04T19:36:13.048Z,31.40
2022-08-04T19:38:44.197Z,31.20
2022-08-04T19:41:14.974Z,30.90
2022-08-04T19:43:46.379Z,31.00
2022-08-04T19:46:17.679Z,30.80
2022-08-04T19:48:59.762Z,30.80
2022-08-04T19:51:20.080Z,30.90
2022-08-04T19:53:54.776Z,31.10
2022-08-04T19:56:22.463Z,31.30
2022-08-04T19:58:53.638Z,31.40
2022-08-04T20:01:33.405Z,31.60
2022-08-04T20:04:10.212Z,31.40
2022-08-04T20:06:26.378Z,31.30
2022-08-04T20:08:57.696Z,31.20
2022-08-04T20:11:27.171Z,30.90
2022-08-04T20:13:56.603Z,30.70
2022-08-04T20:16:29.859Z,30.70
2022-08-04T20:19:02.836Z,30.50
2022-08-04T20:21:36.415Z,30.50
2022-08-04T20:24:37.620Z,30.30
2022-08-04T20:26:31.388Z,30.40
2022-08-04T20:29:01.712Z,30.30
2022-08-04T20:31:31.651Z,30.30
2022-08-04T20:34:01.316Z,30.10
2022-08-04T20:36:30.776Z,30.10
2022-08-04T20:39:00.366Z,30.20
2022-08-04T20:41:36.730Z,30.20
2022-08-04T20:44:01.939Z,30.10
2022-08-04T20:46:31.448Z,30.10
2022-08-04T20:49:00.926Z,30.10
2022-08-04T20:54:02.280Z,29.70
2022-08-04T20:56:31.934Z,29.90
2022-08-04T20:59:01.670Z,30.30
2022-08-04T21:01:32.945Z,30.50
2022-08-04T21:04:27.202Z,30.40
2022-08-04T21:06:52.320Z,30.30
2022-08-04T21:09:37.573Z,30.40
2022-08-04T21:11:52.909Z,30.30
2022-08-04T21:14:22.493Z,30.10
2022-08-04T21:16:56.362Z,30.10
2022-08-04T21:19:26.975Z,30.00
2022-08-04T21:21:57.003Z,29.90
2022-08-04T21:24:28.315Z,29.90
2022-08-04T21:27:00.469Z,29.90
2022-08-04T21:29:35.044Z,29.70
2022-08-04T21:34:39.559Z,29.30
2022-08-04T21:37:11.261Z,29.20
2022-08-04T21:39:50.151Z,29.10
2022-08-04T21:42:30.570Z,28.90
2022-08-04T21:44:43.661Z,28.70
2022-08-04T21:47:22.382Z,28.50
2022-08-04T21:49:56.341Z,28.40
2022-08-04T21:52:16.682Z,28.40
2022-08-04T21:54:46.754Z,28.20
2022-08-04T21:57:17.868Z,28.00
2022-08-04T21:59:48.935Z,28.00
2022-08-04T22:02:19.616Z,27.80
2022-08-04T22:04:49.800Z,27.70
2022-08-04T22:07:23.215Z,27.40
2022-08-04T22:10:00.282Z,27.30
2022-08-04T22:12:22.026Z,27.10
2022-08-04T22:14:59.573Z,27.00
2022-08-04T22:17:22.675Z,27.00
2022-08-04T22:19:55.861Z,27.10
2022-08-04T22:22:29.146Z,27.40
2022-08-04T22:24:58.915Z,27.60
2022-08-04T22:27:47.896Z,27.70
2022-08-04T22:30:18.455Z,27.90
2022-08-04T22:32:48.531Z,27.80
2022-08-04T22:35:35.871Z,27.80
2022-08-04T22:38:06.200Z,27.50
2022-08-04T22:40:26.261Z,27.20
2022-08-04T22:42:56.962Z,27.30
2022-08-04T22:45:28.826Z,27.60
2022-08-04T22:47:58.940Z,27.70
2022-08-04T22:50:28.557Z,27.40
2022-08-04T22:52:58.102Z,27.40
2022-08-04T22:56:06.829Z,27.50
2022-08-04T22:58:05.394Z,27.50
2022-08-04T23:00:33.805Z,27.70
2022-08-04T23:03:03.312Z,27.70
2022-08-04T23:05:36.146Z,27.60
2022-08-04T23:08:05.885Z,27.60
2022-08-04T23:10:36.142Z,27.40
2022-08-04T23:13:05.880Z,27.30
2022-08-04T23:15:35.816Z,27.60
2022-08-04T23:18:05.440Z,27.70
2022-08-04T23:20:39.718Z,27.80
2022-08-04T23:23:14.994Z,27.60
2022-08-04T23:26:07.972Z,27.90
2022-08-04T23:28:11.287Z,27.80
2022-08-04T23:30:40.858Z,28.00
2022-08-04T23:33:11.945Z,28.00
2022-08-04T23:35:41.806Z,28.00
2022-08-04T23:38:31.746Z,27.90
2022-08-04T23:40:50.418Z,27.60
2022-08-04T23:43:17.046Z,27.60
2022-08-04T23:46:04.059Z,27.60
2022-08-04T23:48:19.408Z,27.80
2022-08-04T23:50:47.686Z,27.70
2022-08-04T23:53:18.350Z,27.80
2022-08-04T23:55:48.281Z,27.60
2022-08-04T23:58:26.825Z,27.30
